This is the latest recevied weather packets stored in our database for station/object K1LVA. If no packets are shown the sender has not sent any weather packets the latest 10 day(s).
| Time | Temp. | Humidity | Pressure | Rain* | Wind** | Luminosity | Snow |
|---|---|---|---|---|---|---|---|
| 1777659319 | 18.89° C | 70% | 1013.5 hPa | 0 mm | - | 340 W/m² | - |
| 1777659016 | 18.33° C | 72% | 1013.6 hPa | 0 mm | - | 373 W/m² | - |
| 1777657501 | 17.78° C | 75% | 1013.6 hPa | 0 mm | - | 861 W/m² | - |
| 1777653559 | 17.22° C | 73% | 1013.3 hPa | 0 mm | - | 377 W/m² | - |
| 1777652952 | 17.78° C | 71% | 1013.4 hPa | 0 mm | - | 323 W/m² | - |
| 1777652649 | 17.78° C | 71% | 1013.4 hPa | 0 mm | - | 400 W/m² | - |
| 1777652346 | 17.78° C | 71% | 1013.9 hPa | 0 mm | - | 260 W/m² | - |
| 1777652043 | 17.78° C | 71% | 1014 hPa | 0 mm | - | 186 W/m² | - |
| 1777651739 | 17.78° C | 69% | 1014 hPa | 0 mm | - | 165 W/m² | - |
| 1777651436 | 17.78° C | 70% | 1014.2 hPa | 0 mm | - | 167 W/m² | - |
| 1777650830 | 17.78° C | 70% | 1014.4 hPa | 0 mm | - | 115 W/m² | - |
| 1777650225 | 17.78° C | 69% | 1014.2 hPa | 0 mm | - | 121 W/m² | - |
| 1777649922 | 17.78° C | 68% | 1014.2 hPa | 0 mm | - | 149 W/m² | - |
| 1777649619 | 17.78° C | 67% | 1014.2 hPa | 0 mm | - | 154 W/m² | - |
| 1777649314 | 17.78° C | 67% | 1014.1 hPa | 0 mm | - | 131 W/m² | - |
| 1777649012 | 17.78° C | 67% | 1014 hPa | 0 mm | - | 132 W/m² | - |
| 1777648710 | 17.78° C | 68% | 1014 hPa | 0 mm | - | 149 W/m² | - |
| 1777648405 | 17.78° C | 67% | 1014.3 hPa | 0 mm | - | 140 W/m² | - |
| 1777648102 | 17.78° C | 67% | 1014.1 hPa | 0 mm | - | 161 W/m² | - |
| 1777647799 | 17.78° C | 66% | 1013.9 hPa | 0 mm | - | 172 W/m² | - |
| 1777647494 | 17.78° C | 65% | 1014.1 hPa | 0 mm | - | 163 W/m² | - |
| 1777647192 | 17.78° C | 64% | 1014.1 hPa | 0 mm | - | 221 W/m² | - |
| 1777646584 | 18.33° C | 65% | 1014.2 hPa | 0 mm | - | 351 W/m² | - |
| 1777646281 | 17.78° C | 64% | 1014.5 hPa | 0 mm | - | 289 W/m² | - |
| 1777645978 | 18.33° C | 65% | 1014.5 hPa | 0 mm | - | 342 W/m² | - |
* Rain latest hour (hover to see other rain measurements)
** Current wind speed in m/s (hover to see current wind gust speed)